• Join FlightAware (Why Join?)
  • Login
  • US Flag 
10:17AM EDT


 

Airport Tracker/Info


-or-


 

Live Flight TrackerFlight Track Log ✈ ASQ5875 ✈ 16-Jun-2013 ✈ KLIT - KORD

Flight Track Log - Related Links

Times and Time Zones

All times are in EDT time to prevent confusion due to time zone crossing. See the ASQ5875 flight status page for this flight to view local times or setup timezone preferences in your user account.

Time Position Orientation Groundspeed Altitude Reporting Facility
EDT Latitude Longitude Course Direction KTS MPH feet Rate Location/Type
11:23AM 34.7111 -92.2619 235° Southwest 173 199 1,600  Level Memphis Center
11:24AM 34.7292 -92.3156 292° West 218 251 3,700 1,980 Climbing Memphis Center
11:25AM 34.7839 -92.2814 27° Northeast 245 282 5,700 1,800 Climbing Memphis Center
11:26AM 34.9445 -92.0972 12° North  Level FlightAware Approximate
11:26AM 34.8494 -92.2247 35° Northeast 274 315 7,400  Level Memphis Center
11:27AM 35.0301 -92.0743 14° North  Level FlightAware Approximate
11:27AM 34.9150 -92.1678 35° Northeast 274 315 9,500  Level Memphis Center
11:28AM 35.1153 -92.0488 14° North  Level FlightAware Approximate
11:28AM 34.9847 -92.1061 36° Northeast 285 328 11,300  Level Memphis Center
11:29AM 35.0708 -92.0697 19° North 298 343 12,400 1,080 Climbing Memphis Center
11:30AM 35.1672 -92.0411 14° North 328 377 13,500 1,200 Climbing Memphis Center
11:31AM 35.2675 -92.0128 13° North 351 404 14,900 1,380 Climbing Memphis Center
11:32AM 35.3661 -91.9814 15° North 359 413 16,300 1,200 Climbing Memphis Center
11:33AM 35.4667 -91.9528 13° North 364 419 17,400 960 Climbing Memphis Center
11:34AM 35.5711 -91.9242 13° North 372 428 18,300 900 Climbing Memphis Center
11:35AM 35.6758 -91.8931 14° North 378 435 19,300 960 Climbing Memphis Center
11:36AM 35.7825 -91.8642 12° North 378 435 20,300 960 Climbing Memphis Center
11:37AM 35.8914 -91.8303 14° North 384 442 21,300 900 Climbing Memphis Center
11:38AM 35.9814 -91.8011 15° North 390 449 22,200 900 Climbing Memphis Center
11:39AM 36.0964 -91.7697 12° North 397 457 23,200 900 Climbing Memphis Center
11:40AM 36.2072 -91.7383 13° North 397 457 24,000 900 Climbing Memphis Center
11:41AM 36.3181 -91.7042 14° North 397 457 25,000 1,080 Climbing Memphis Center
11:43AM 36.5419 -91.6344 14° North 401 461 27,400 1,080 Climbing Kansas City Center
11:44AM 36.6589 -91.5997 13° North 399 459 28,500 960 Climbing Kansas City Center
11:45AM 36.7672 -91.5675 13° North 399 459 29,500 1,020 Climbing Kansas City Center
11:46AM 36.8744 -91.5333 14° North 398 458 30,700 1,140 Climbing Kansas City Center
11:47AM 36.9817 -91.5033 13° North 396 456 31,900 1,080 Climbing Kansas City Center
11:48AM 37.0881 -91.4694 14° North 395 455 33,000 1,080 Climbing Kansas City Center
11:49AM 37.2172 -91.4308 13° North 395 455 34,200 960 Climbing Kansas City Center
11:50AM 37.3256 -91.3981 14° North 397 457 35,100 900 Climbing Kansas City Center
11:51AM 37.4333 -91.3647 14° North 399 459 36,100 900 Climbing Kansas City Center
11:52AM 37.5428 -91.3308 14° North 400 460 37,000 420 Climbing Kansas City Center
11:53AM 37.6533 -91.3233 North 399 459 37,000  Level Kansas City Center
11:54AM 37.7683 -91.3189 North 406 467 37,000  Level Kansas City Center
11:56AM 37.9139 -91.3108 North 424 488 37,000  Level Kansas City Center
11:57AM 38.0369 -91.3003 North 437 503 37,000  Level Kansas City Center
11:58AM 38.1594 -91.2525 17° North 451 519 37,000  Level Kansas City Center
11:59AM 38.2811 -91.1889 22° Northeast 461 531 37,000  Level Kansas City Center
12:00PM 38.4017 -91.1253 22° Northeast 466 536 37,000  Level Kansas City Center
12:01PM 38.5242 -91.0625 22° Northeast 470 541 37,000  Level Kansas City Center
12:02PM 38.6472 -90.9981 22° Northeast 474 545 37,000  Level Kansas City Center
12:03PM 38.7703 -90.9325 23° Northeast 475 547 37,000  Level Kansas City Center
12:04PM 38.9181 -90.8997 10° North 442 509 37,000  Level Kansas City Center
12:05PM 39.0364 -90.9328 348° North 432 497 37,000  Level Kansas City Center
12:06PM 39.1542 -90.9628 349° North 431 496 37,000  Level Kansas City Center
12:07PM 39.2717 -90.9925 349° North 430 495 37,000  Level Kansas City Center
12:08PM 39.3872 -91.0222 349° North 426 490 37,000  Level Kansas City Center
12:09PM 39.5011 -91.0522 349° North 419 482 37,000  Level Kansas City Center
12:10PM 39.6158 -91.0786 350° North 418 481 37,000 -180 Level Kansas City Center
12:11PM 39.7525 -91.0153 20° North 446 513 36,700 -900 Descending Kansas City Center
12:12PM 39.8614 -90.9056 38° Northeast 474 545 35,200 -1,380 Descending Kansas City Center
12:13PM 39.9672 -90.8000 37° Northeast 477 549 33,900 -1,080 Descending Kansas City Center
12:14PM 40.0761 -90.6928 37° Northeast 487 560 33,000 -480 Descending Kansas City Center
12:15PM 40.1817 -90.5864 38° Northeast 483 556 33,000  Level Kansas City Center
12:16PM 40.2900 -90.4778 37° Northeast 486 559 33,000  Level Kansas City Center
12:17PM 40.3967 -90.3706 37° Northeast 485 558 33,000  Level Kansas City Center
12:18PM 40.4383 -90.3289 37° Northeast 485 558 33,000  Level Chicago Center
12:19PM 40.5508 -90.2069 39° Northeast 492 566 33,000 -900 Level Chicago Center
12:20PM 40.6414 -90.0722 48° Northeast 494 568 31,200 -1,860 Descending Chicago Center
12:21PM 40.7339 -89.9328 49° Northeast 507 583 29,200 -1,680 Descending Chicago Center
12:22PM 40.8394 -89.7639 50° Northeast 498 573 27,800 -1,200 Descending Chicago Center
12:23PM 40.9272 -89.6300 49° Northeast 481 554 26,800 -1,020 Descending Chicago Center
12:24PM 41.0139 -89.4972 49° Northeast 458 527 25,800 -1,320 Descending Chicago Center
12:25PM 41.0958 -89.3697 50° Northeast 453 521 24,100 -1,980 Descending Chicago Center
12:26PM 41.1747 -89.2453 50° Northeast 443 510 21,800 -2,100 Descending Chicago Center
12:27PM 41.2469 -89.1328 49° Northeast 430 495 19,800 -2,400 Descending Chicago Center
12:28PM 41.3300 -88.9961 51° Northeast 400 460 16,900 -2,640 Descending Chicago Center
12:29PM 41.3983 -88.8903 49° Northeast 381 438 14,400 -2,520 Descending Chicago Center
12:30PM 41.4625 -88.7881 50° Northeast 362 417 11,700 -1,680 Descending Chicago Center
12:31PM 41.5231 -88.6836 52° Northeast 355 409 11,000 -360 Descending Chicago Center
12:32PM 41.5692 -88.5631 63° Northeast 365 420 11,000 -240 Level Chicago Center
12:33PM 41.6186 -88.4481 60° Northeast 358 412 10,500 -540 Descending Chicago Center
12:34PM 41.6892 -88.3275 52° Northeast 342 394 10,000 -300 Descending Chicago Center
12:35PM 41.7483 -88.2281 51° Northeast 342 394 10,000 -240 Level Chicago Center
12:36PM 41.8036 -88.1328 52° Northeast 322 371 9,600 -660 Descending Chicago Center
12:37PM 41.8386 -88.0333 65° Northeast 300 345 8,700 -960 Descending Chicago Center
12:38PM 41.8603 -87.9253 75° East 300 345 7,700 -840 Descending Chicago Center
12:39PM 41.8792 -87.8256 76° East 280 322 7,000 -1,020 Descending Chicago Center
12:40PM 41.8842 -87.7186 86° East 245 282 5,600 -1,320 Descending Chicago Center
12:41PM 41.9100 -87.6556 61° Northeast 235 270 4,300 -1,200 Descending Chicago Center
12:42PM 41.9531 -87.7072 318° Northwest 231 266 3,200 -1,020 Descending Chicago Center
12:43PM 41.9719 -87.7828 289° West 223 257 2,200 -900 Descending Chicago Center
12:44PM 41.9689 -87.8367 266° West 173 199 1,400 -780 Descending Chicago Center